sensor_id;sensor_type;location;lat;lon;timestamp;P1;durP1;ratioP1;P2;durP2;ratioP2
15488;SDS011;7846;48.830;9.116;2022-10-16T00:01:23;5.57;;;1.20;;
15488;SDS011;7846;48.830;9.116;2022-10-16T00:03:52;1.20;;;1.07;;
15488;SDS011;7846;48.830;9.116;2022-10-16T00:06:18;3.07;;;1.03;;
15488;SDS011;7846;48.830;9.116;2022-10-16T00:08:46;2.07;;;1.17;;
15488;SDS011;7846;48.830;9.116;2022-10-16T00:11:15;1.07;;;1.00;;
15488;SDS011;7846;48.830;9.116;2022-10-16T00:13:43;1.53;;;1.17;;
15488;SDS011;7846;48.830;9.116;2022-10-16T00:16:10;0.80;;;0.80;;
15488;SDS011;7846;48.830;9.116;2022-10-16T00:18:36;1.93;;;1.10;;
15488;SDS011;7846;48.830;9.116;2022-10-16T00:21:04;1.87;;;1.10;;
15488;SDS011;7846;48.830;9.116;2022-10-16T00:23:32;1.73;;;1.10;;
15488;SDS011;7846;48.830;9.116;2022-10-16T00:25:58;3.43;;;1.27;;
15488;SDS011;7846;48.830;9.116;2022-10-16T00:28:26;1.97;;;1.10;;
15488;SDS011;7846;48.830;9.116;2022-10-16T00:30:52;2.13;;;1.10;;
15488;SDS011;7846;48.830;9.116;2022-10-16T00:33:20;3.90;;;1.27;;
15488;SDS011;7846;48.830;9.116;2022-10-16T00:35:45;2.20;;;1.10;;
15488;SDS011;7846;48.830;9.116;2022-10-16T00:38:13;2.60;;;1.10;;
15488;SDS011;7846;48.830;9.116;2022-10-16T00:40:38;1.00;;;1.00;;
15488;SDS011;7846;48.830;9.116;2022-10-16T00:43:14;1.40;;;1.30;;
15488;SDS011;7846;48.830;9.116;2022-10-16T00:46:17;2.57;;;1.20;;
15488;SDS011;7846;48.830;9.116;2022-10-16T00:48:52;1.27;;;1.17;;
15488;SDS011;7846;48.830;9.116;2022-10-16T00:51:33;2.27;;;1.20;;
15488;SDS011;7846;48.830;9.116;2022-10-16T00:54:06;2.70;;;1.10;;
15488;SDS011;7846;48.830;9.116;2022-10-16T00:56:35;2.10;;;1.30;;
15488;SDS011;7846;48.830;9.116;2022-10-16T00:59:01;1.20;;;1.10;;
15488;SDS011;7846;48.830;9.116;2022-10-16T01:01:31;2.07;;;1.20;;
15488;SDS011;7846;48.830;9.116;2022-10-16T01:03:58;4.60;;;1.30;;
15488;SDS011;7846;48.830;9.116;2022-10-16T01:09:28;2.73;;;1.30;;
15488;SDS011;7846;48.830;9.116;2022-10-16T01:12:01;1.43;;;1.33;;
15488;SDS011;7846;48.830;9.116;2022-10-16T01:14:46;3.13;;;1.37;;
15488;SDS011;7846;48.830;9.116;2022-10-16T01:17:18;1.67;;;1.10;;
15488;SDS011;7846;48.830;9.116;2022-10-16T01:20:08;1.10;;;0.97;;
15488;SDS011;7846;48.830;9.116;2022-10-16T01:22:38;1.20;;;1.10;;
15488;SDS011;7846;48.830;9.116;2022-10-16T01:25:08;1.67;;;1.20;;
15488;SDS011;7846;48.830;9.116;2022-10-16T01:27:37;2.27;;;1.10;;
15488;SDS011;7846;48.830;9.116;2022-10-16T01:30:13;1.27;;;1.00;;
15488;SDS011;7846;48.830;9.116;2022-10-16T01:32:49;2.20;;;1.00;;
15488;SDS011;7846;48.830;9.116;2022-10-16T01:35:22;1.10;;;1.00;;
15488;SDS011;7846;48.830;9.116;2022-10-16T01:38:04;3.47;;;1.10;;
15488;SDS011;7846;48.830;9.116;2022-10-16T01:40:36;1.23;;;1.10;;
15488;SDS011;7846;48.830;9.116;2022-10-16T01:43:08;1.63;;;1.10;;
15488;SDS011;7846;48.830;9.116;2022-10-16T01:45:39;1.37;;;1.27;;
15488;SDS011;7846;48.830;9.116;2022-10-16T01:48:09;2.50;;;1.30;;
15488;SDS011;7846;48.830;9.116;2022-10-16T01:50:39;1.20;;;1.10;;
15488;SDS011;7846;48.830;9.116;2022-10-16T01:53:08;2.77;;;1.13;;
15488;SDS011;7846;48.830;9.116;2022-10-16T01:58:13;1.73;;;0.90;;
15488;SDS011;7846;48.830;9.116;2022-10-16T02:00:39;1.83;;;1.20;;
15488;SDS011;7846;48.830;9.116;2022-10-16T02:03:08;4.73;;;1.43;;
15488;SDS011;7846;48.830;9.116;2022-10-16T02:05:38;4.13;;;1.50;;
15488;SDS011;7846;48.830;9.116;2022-10-16T02:08:08;3.53;;;1.53;;
15488;SDS011;7846;48.830;9.116;2022-10-16T02:10:34;2.60;;;1.53;;
15488;SDS011;7846;48.830;9.116;2022-10-16T02:13:03;4.10;;;1.57;;
15488;SDS011;7846;48.830;9.116;2022-10-16T02:15:33;3.43;;;1.43;;
15488;SDS011;7846;48.830;9.116;2022-10-16T02:18:00;6.33;;;1.63;;
15488;SDS011;7846;48.830;9.116;2022-10-16T02:20:28;2.50;;;1.50;;
15488;SDS011;7846;48.830;9.116;2022-10-16T02:23:01;2.40;;;1.20;;
15488;SDS011;7846;48.830;9.116;2022-10-16T02:25:32;1.67;;;1.20;;
15488;SDS011;7846;48.830;9.116;2022-10-16T02:28:03;3.20;;;1.20;;
15488;SDS011;7846;48.830;9.116;2022-10-16T02:30:35;3.17;;;1.37;;
15488;SDS011;7846;48.830;9.116;2022-10-16T02:33:07;1.30;;;1.10;;
15488;SDS011;7846;48.830;9.116;2022-10-16T02:35:35;1.33;;;1.23;;
15488;SDS011;7846;48.830;9.116;2022-10-16T02:38:01;1.57;;;1.07;;
15488;SDS011;7846;48.830;9.116;2022-10-16T02:40:28;3.20;;;1.20;;
15488;SDS011;7846;48.830;9.116;2022-10-16T02:42:54;3.03;;;1.23;;
15488;SDS011;7846;48.830;9.116;2022-10-16T02:45:20;1.67;;;1.23;;
15488;SDS011;7846;48.830;9.116;2022-10-16T02:47:46;3.33;;;1.43;;
15488;SDS011;7846;48.830;9.116;2022-10-16T02:50:11;2.90;;;1.10;;
15488;SDS011;7846;48.830;9.116;2022-10-16T02:52:37;1.57;;;1.10;;
15488;SDS011;7846;48.830;9.116;2022-10-16T02:55:02;1.67;;;1.10;;
15488;SDS011;7846;48.830;9.116;2022-10-16T02:57:28;2.43;;;1.23;;
15488;SDS011;7846;48.830;9.116;2022-10-16T02:59:59;1.93;;;1.00;;
15488;SDS011;7846;48.830;9.116;2022-10-16T03:02:24;3.07;;;1.40;;
15488;SDS011;7846;48.830;9.116;2022-10-16T03:04:51;1.63;;;1.00;;
15488;SDS011;7846;48.830;9.116;2022-10-16T03:07:19;2.93;;;1.00;;
15488;SDS011;7846;48.830;9.116;2022-10-16T03:09:44;2.10;;;1.03;;
15488;SDS011;7846;48.830;9.116;2022-10-16T03:12:11;2.33;;;1.17;;
15488;SDS011;7846;48.830;9.116;2022-10-16T03:14:37;2.53;;;1.20;;
15488;SDS011;7846;48.830;9.116;2022-10-16T03:17:02;1.43;;;1.30;;
15488;SDS011;7846;48.830;9.116;2022-10-16T03:19:27;3.37;;;1.40;;
15488;SDS011;7846;48.830;9.116;2022-10-16T03:21:53;1.73;;;1.30;;
15488;SDS011;7846;48.830;9.116;2022-10-16T03:24:18;4.97;;;1.30;;
15488;SDS011;7846;48.830;9.116;2022-10-16T03:26:44;1.10;;;1.10;;
15488;SDS011;7846;48.830;9.116;2022-10-16T03:29:10;4.87;;;1.33;;
15488;SDS011;7846;48.830;9.116;2022-10-16T03:31:35;3.53;;;1.23;;
15488;SDS011;7846;48.830;9.116;2022-10-16T03:34:00;2.70;;;1.20;;
15488;SDS011;7846;48.830;9.116;2022-10-16T03:36:27;3.37;;;1.47;;
15488;SDS011;7846;48.830;9.116;2022-10-16T03:38:57;4.10;;;1.20;;
15488;SDS011;7846;48.830;9.116;2022-10-16T03:41:23;1.73;;;1.07;;
15488;SDS011;7846;48.830;9.116;2022-10-16T03:43:48;2.80;;;1.37;;
15488;SDS011;7846;48.830;9.116;2022-10-16T03:46:14;4.13;;;1.37;;
15488;SDS011;7846;48.830;9.116;2022-10-16T03:48:39;7.07;;;1.47;;
15488;SDS011;7846;48.830;9.116;2022-10-16T03:51:05;4.13;;;1.50;;
15488;SDS011;7846;48.830;9.116;2022-10-16T03:53:32;1.70;;;1.27;;
15488;SDS011;7846;48.830;9.116;2022-10-16T03:55:57;1.33;;;1.20;;
15488;SDS011;7846;48.830;9.116;2022-10-16T03:58:23;1.30;;;1.20;;
15488;SDS011;7846;48.830;9.116;2022-10-16T04:00:49;1.50;;;1.30;;
15488;SDS011;7846;48.830;9.116;2022-10-16T04:03:17;2.97;;;1.33;;
15488;SDS011;7846;48.830;9.116;2022-10-16T04:06:02;1.63;;;1.27;;
15488;SDS011;7846;48.830;9.116;2022-10-16T04:08:27;2.77;;;1.30;;
15488;SDS011;7846;48.830;9.116;2022-10-16T04:10:54;1.40;;;1.27;;
15488;SDS011;7846;48.830;9.116;2022-10-16T04:13:19;2.07;;;1.50;;
15488;SDS011;7846;48.830;9.116;2022-10-16T04:15:45;1.50;;;1.40;;
15488;SDS011;7846;48.830;9.116;2022-10-16T04:18:12;3.03;;;1.40;;
15488;SDS011;7846;48.830;9.116;2022-10-16T04:20:37;2.57;;;1.27;;
15488;SDS011;7846;48.830;9.116;2022-10-16T04:23:03;3.43;;;1.30;;
15488;SDS011;7846;48.830;9.116;2022-10-16T04:25:28;4.00;;;1.40;;
15488;SDS011;7846;48.830;9.116;2022-10-16T04:27:54;2.07;;;1.40;;
15488;SDS011;7846;48.830;9.116;2022-10-16T04:30:20;3.57;;;1.40;;
15488;SDS011;7846;48.830;9.116;2022-10-16T04:32:51;3.97;;;1.40;;
15488;SDS011;7846;48.830;9.116;2022-10-16T04:35:17;3.07;;;1.43;;
15488;SDS011;7846;48.830;9.116;2022-10-16T04:37:46;1.50;;;1.40;;
15488;SDS011;7846;48.830;9.116;2022-10-16T04:44:11;3.13;;;1.30;;
15488;SDS011;7846;48.830;9.116;2022-10-16T04:46:36;5.27;;;1.30;;
15488;SDS011;7846;48.830;9.116;2022-10-16T04:49:02;3.50;;;1.40;;
15488;SDS011;7846;48.830;9.116;2022-10-16T04:51:27;1.40;;;1.20;;
15488;SDS011;7846;48.830;9.116;2022-10-16T04:53:53;4.40;;;1.90;;
15488;SDS011;7846;48.830;9.116;2022-10-16T04:56:20;1.80;;;1.70;;
15488;SDS011;7846;48.830;9.116;2022-10-16T04:58:47;3.90;;;1.47;;
15488;SDS011;7846;48.830;9.116;2022-10-16T05:01:13;1.63;;;1.53;;
15488;SDS011;7846;48.830;9.116;2022-10-16T05:03:38;3.73;;;1.70;;
15488;SDS011;7846;48.830;9.116;2022-10-16T05:06:08;3.30;;;1.40;;
15488;SDS011;7846;48.830;9.116;2022-10-16T05:08:33;2.93;;;1.60;;
15488;SDS011;7846;48.830;9.116;2022-10-16T05:11:00;4.33;;;1.87;;
15488;SDS011;7846;48.830;9.116;2022-10-16T05:13:26;1.50;;;1.40;;
15488;SDS011;7846;48.830;9.116;2022-10-16T05:16:01;2.67;;;1.53;;
15488;SDS011;7846;48.830;9.116;2022-10-16T05:18:26;1.60;;;1.50;;
15488;SDS011;7846;48.830;9.116;2022-10-16T05:20:52;5.57;;;1.60;;
15488;SDS011;7846;48.830;9.116;2022-10-16T05:23:17;3.00;;;1.50;;
15488;SDS011;7846;48.830;9.116;2022-10-16T05:25:42;2.03;;;1.50;;
15488;SDS011;7846;48.830;9.116;2022-10-16T05:28:08;2.20;;;1.47;;
15488;SDS011;7846;48.830;9.116;2022-10-16T05:30:36;6.53;;;2.00;;
15488;SDS011;7846;48.830;9.116;2022-10-16T05:33:02;2.80;;;1.90;;
15488;SDS011;7846;48.830;9.116;2022-10-16T05:35:27;6.73;;;2.10;;
15488;SDS011;7846;48.830;9.116;2022-10-16T05:37:55;2.33;;;1.63;;
15488;SDS011;7846;48.830;9.116;2022-10-16T05:40:21;3.70;;;1.73;;
15488;SDS011;7846;48.830;9.116;2022-10-16T05:42:49;2.50;;;1.53;;
15488;SDS011;7846;48.830;9.116;2022-10-16T05:45:18;1.93;;;1.60;;
15488;SDS011;7846;48.830;9.116;2022-10-16T05:47:43;2.07;;;1.60;;
15488;SDS011;7846;48.830;9.116;2022-10-16T05:50:11;2.07;;;1.70;;
15488;SDS011;7846;48.830;9.116;2022-10-16T05:52:39;3.20;;;1.90;;
15488;SDS011;7846;48.830;9.116;2022-10-16T05:55:05;1.90;;;1.80;;
15488;SDS011;7846;48.830;9.116;2022-10-16T05:57:30;4.00;;;1.80;;
15488;SDS011;7846;48.830;9.116;2022-10-16T05:59:56;1.93;;;1.40;;
15488;SDS011;7846;48.830;9.116;2022-10-16T06:02:21;4.80;;;1.70;;
15488;SDS011;7846;48.830;9.116;2022-10-16T06:04:49;1.67;;;1.57;;
15488;SDS011;7846;48.830;9.116;2022-10-16T06:07:19;3.87;;;1.67;;
15488;SDS011;7846;48.830;9.116;2022-10-16T06:09:49;1.53;;;1.40;;
15488;SDS011;7846;48.830;9.116;2022-10-16T06:12:17;3.40;;;1.67;;
15488;SDS011;7846;48.830;9.116;2022-10-16T06:14:44;4.77;;;1.57;;
15488;SDS011;7846;48.830;9.116;2022-10-16T06:17:10;3.77;;;1.57;;
15488;SDS011;7846;48.830;9.116;2022-10-16T06:19:36;3.10;;;1.60;;
15488;SDS011;7846;48.830;9.116;2022-10-16T06:22:03;2.23;;;1.57;;
15488;SDS011;7846;48.830;9.116;2022-10-16T06:24:29;4.60;;;1.73;;
15488;SDS011;7846;48.830;9.116;2022-10-16T06:26:54;1.70;;;1.60;;
15488;SDS011;7846;48.830;9.116;2022-10-16T06:29:20;4.13;;;1.60;;
15488;SDS011;7846;48.830;9.116;2022-10-16T06:31:47;5.00;;;1.53;;
15488;SDS011;7846;48.830;9.116;2022-10-16T06:34:15;5.67;;;2.07;;
15488;SDS011;7846;48.830;9.116;2022-10-16T06:36:40;2.80;;;1.60;;
15488;SDS011;7846;48.830;9.116;2022-10-16T06:39:06;2.57;;;1.73;;
15488;SDS011;7846;48.830;9.116;2022-10-16T06:41:34;2.77;;;1.70;;
15488;SDS011;7846;48.830;9.116;2022-10-16T06:44:01;3.93;;;1.80;;
15488;SDS011;7846;48.830;9.116;2022-10-16T06:46:30;6.13;;;1.80;;
15488;SDS011;7846;48.830;9.116;2022-10-16T06:48:55;5.30;;;1.70;;
15488;SDS011;7846;48.830;9.116;2022-10-16T06:51:22;3.03;;;1.87;;
15488;SDS011;7846;48.830;9.116;2022-10-16T06:53:50;3.77;;;1.70;;
15488;SDS011;7846;48.830;9.116;2022-10-16T06:56:24;3.60;;;1.60;;
15488;SDS011;7846;48.830;9.116;2022-10-16T06:58:51;2.80;;;1.83;;
15488;SDS011;7846;48.830;9.116;2022-10-16T07:01:21;5.23;;;1.70;;
15488;SDS011;7846;48.830;9.116;2022-10-16T07:03:47;2.53;;;1.50;;
15488;SDS011;7846;48.830;9.116;2022-10-16T07:06:14;1.70;;;1.43;;
15488;SDS011;7846;48.830;9.116;2022-10-16T07:08:42;3.77;;;1.60;;
15488;SDS011;7846;48.830;9.116;2022-10-16T07:11:10;4.23;;;1.77;;
15488;SDS011;7846;48.830;9.116;2022-10-16T07:13:37;2.77;;;1.60;;
15488;SDS011;7846;48.830;9.116;2022-10-16T07:16:12;5.63;;;1.23;;
15488;SDS011;7846;48.830;9.116;2022-10-16T07:18:48;3.30;;;1.40;;
15488;SDS011;7846;48.830;9.116;2022-10-16T07:21:17;2.87;;;1.60;;
15488;SDS011;7846;48.830;9.116;2022-10-16T07:23:51;2.40;;;1.57;;
15488;SDS011;7846;48.830;9.116;2022-10-16T07:26:17;2.10;;;1.27;;
15488;SDS011;7846;48.830;9.116;2022-10-16T07:28:42;3.50;;;1.37;;
15488;SDS011;7846;48.830;9.116;2022-10-16T07:31:10;2.50;;;1.47;;
15488;SDS011;7846;48.830;9.116;2022-10-16T07:33:37;2.60;;;1.30;;
15488;SDS011;7846;48.830;9.116;2022-10-16T07:36:03;4.83;;;1.40;;
15488;SDS011;7846;48.830;9.116;2022-10-16T07:38:29;4.50;;;1.50;;
15488;SDS011;7846;48.830;9.116;2022-10-16T07:40:58;3.90;;;1.50;;
15488;SDS011;7846;48.830;9.116;2022-10-16T07:43:25;3.00;;;1.60;;
15488;SDS011;7846;48.830;9.116;2022-10-16T07:45:54;5.00;;;1.80;;
15488;SDS011;7846;48.830;9.116;2022-10-16T07:48:20;3.83;;;2.50;;
15488;SDS011;7846;48.830;9.116;2022-10-16T07:50:46;3.33;;;2.30;;
15488;SDS011;7846;48.830;9.116;2022-10-16T07:53:15;4.00;;;1.80;;
15488;SDS011;7846;48.830;9.116;2022-10-16T07:55:43;4.23;;;2.10;;
15488;SDS011;7846;48.830;9.116;2022-10-16T07:58:09;5.40;;;2.07;;
15488;SDS011;7846;48.830;9.116;2022-10-16T08:00:36;3.80;;;1.60;;
15488;SDS011;7846;48.830;9.116;2022-10-16T08:03:04;1.60;;;1.50;;
15488;SDS011;7846;48.830;9.116;2022-10-16T08:05:30;1.70;;;1.30;;
15488;SDS011;7846;48.830;9.116;2022-10-16T08:07:57;1.67;;;1.53;;
15488;SDS011;7846;48.830;9.116;2022-10-16T08:10:23;3.07;;;1.40;;
15488;SDS011;7846;48.830;9.116;2022-10-16T08:12:51;4.57;;;1.50;;
15488;SDS011;7846;48.830;9.116;2022-10-16T08:15:16;3.83;;;1.50;;
15488;SDS011;7846;48.830;9.116;2022-10-16T08:17:42;3.53;;;1.50;;
15488;SDS011;7846;48.830;9.116;2022-10-16T08:20:08;2.07;;;1.40;;
15488;SDS011;7846;48.830;9.116;2022-10-16T08:22:34;2.63;;;1.40;;
15488;SDS011;7846;48.830;9.116;2022-10-16T08:24:59;5.83;;;1.70;;
15488;SDS011;7846;48.830;9.116;2022-10-16T08:27:24;1.63;;;1.30;;
15488;SDS011;7846;48.830;9.116;2022-10-16T08:29:50;2.17;;;1.23;;
15488;SDS011;7846;48.830;9.116;2022-10-16T08:32:16;3.00;;;1.40;;
15488;SDS011;7846;48.830;9.116;2022-10-16T08:34:43;1.63;;;1.20;;
15488;SDS011;7846;48.830;9.116;2022-10-16T08:37:09;3.23;;;1.50;;
15488;SDS011;7846;48.830;9.116;2022-10-16T08:39:36;4.03;;;1.47;;
15488;SDS011;7846;48.830;9.116;2022-10-16T08:44:59;3.23;;;1.30;;
15488;SDS011;7846;48.830;9.116;2022-10-16T08:50:38;1.77;;;1.50;;
15488;SDS011;7846;48.830;9.116;2022-10-16T08:53:05;3.10;;;1.50;;
15488;SDS011;7846;48.830;9.116;2022-10-16T08:58:10;3.77;;;1.30;;
15488;SDS011;7846;48.830;9.116;2022-10-16T09:00:39;5.50;;;1.10;;
15488;SDS011;7846;48.830;9.116;2022-10-16T09:03:16;2.33;;;1.10;;
15488;SDS011;7846;48.830;9.116;2022-10-16T09:05:52;1.77;;;1.13;;
15488;SDS011;7846;48.830;9.116;2022-10-16T09:08:48;3.30;;;1.17;;
15488;SDS011;7846;48.830;9.116;2022-10-16T09:17:20;1.43;;;1.10;;
15488;SDS011;7846;48.830;9.116;2022-10-16T09:20:20;3.60;;;1.10;;
15488;SDS011;7846;48.830;9.116;2022-10-16T09:23:26;4.43;;;1.00;;
15488;SDS011;7846;48.830;9.116;2022-10-16T09:25:56;1.10;;;1.00;;
15488;SDS011;7846;48.830;9.116;2022-10-16T09:28:23;2.53;;;0.90;;
15488;SDS011;7846;48.830;9.116;2022-10-16T09:30:49;6.43;;;1.00;;
15488;SDS011;7846;48.830;9.116;2022-10-16T09:33:14;1.80;;;1.03;;
15488;SDS011;7846;48.830;9.116;2022-10-16T09:35:45;3.47;;;1.10;;
15488;SDS011;7846;48.830;9.116;2022-10-16T09:38:47;2.00;;;1.00;;
15488;SDS011;7846;48.830;9.116;2022-10-16T09:41:13;1.13;;;0.90;;
15488;SDS011;7846;48.830;9.116;2022-10-16T09:43:57;2.47;;;1.10;;
15488;SDS011;7846;48.830;9.116;2022-10-16T09:46:34;0.90;;;0.90;;
15488;SDS011;7846;48.830;9.116;2022-10-16T09:49:05;2.17;;;1.00;;
15488;SDS011;7846;48.830;9.116;2022-10-16T09:55:01;1.27;;;1.17;;
15488;SDS011;7846;48.830;9.116;2022-10-16T09:57:48;3.57;;;1.20;;
15488;SDS011;7846;48.830;9.116;2022-10-16T10:00:17;3.97;;;1.90;;
15488;SDS011;7846;48.830;9.116;2022-10-16T10:02:44;2.50;;;1.70;;
15488;SDS011;7846;48.830;9.116;2022-10-16T10:05:26;1.40;;;1.30;;
15488;SDS011;7846;48.830;9.116;2022-10-16T10:07:59;1.57;;;1.40;;
15488;SDS011;7846;48.830;9.116;2022-10-16T10:10:31;2.63;;;1.30;;
15488;SDS011;7846;48.830;9.116;2022-10-16T10:12:59;2.73;;;1.20;;
15488;SDS011;7846;48.830;9.116;2022-10-16T10:15:25;4.27;;;1.20;;
15488;SDS011;7846;48.830;9.116;2022-10-16T10:17:54;2.13;;;1.20;;
15488;SDS011;7846;48.830;9.116;2022-10-16T10:22:59;4.40;;;1.50;;
15488;SDS011;7846;48.830;9.116;2022-10-16T10:25:35;6.03;;;1.37;;
15488;SDS011;7846;48.830;9.116;2022-10-16T10:34:01;7.07;;;1.30;;
15488;SDS011;7846;48.830;9.116;2022-10-16T10:37:11;2.07;;;1.10;;
15488;SDS011;7846;48.830;9.116;2022-10-16T10:40:11;1.03;;;1.00;;
15488;SDS011;7846;48.830;9.116;2022-10-16T10:43:04;1.87;;;1.07;;
15488;SDS011;7846;48.830;9.116;2022-10-16T10:45:44;1.87;;;0.80;;
15488;SDS011;7846;48.830;9.116;2022-10-16T10:48:15;2.53;;;1.00;;
15488;SDS011;7846;48.830;9.116;2022-10-16T10:56:41;2.90;;;1.20;;
15488;SDS011;7846;48.830;9.116;2022-10-16T11:04:29;1.40;;;1.20;;
15488;SDS011;7846;48.830;9.116;2022-10-16T11:07:13;1.73;;;1.10;;
15488;SDS011;7846;48.830;9.116;2022-10-16T11:09:47;2.13;;;1.13;;
15488;SDS011;7846;48.830;9.116;2022-10-16T11:12:19;1.67;;;1.27;;
15488;SDS011;7846;48.830;9.116;2022-10-16T11:17:38;3.10;;;1.00;;
15488;SDS011;7846;48.830;9.116;2022-10-16T11:25:39;3.17;;;1.27;;
15488;SDS011;7846;48.830;9.116;2022-10-16T11:30:34;2.73;;;1.20;;
15488;SDS011;7846;48.830;9.116;2022-10-16T11:33:20;2.07;;;1.23;;
15488;SDS011;7846;48.830;9.116;2022-10-16T11:41:33;1.00;;;1.00;;
15488;SDS011;7846;48.830;9.116;2022-10-16T11:47:09;1.10;;;1.10;;
15488;SDS011;7846;48.830;9.116;2022-10-16T11:50:13;1.03;;;1.00;;
15488;SDS011;7846;48.830;9.116;2022-10-16T11:55:48;3.57;;;1.20;;
15488;SDS011;7846;48.830;9.116;2022-10-16T12:03:35;2.13;;;0.90;;
15488;SDS011;7846;48.830;9.116;2022-10-16T12:09:04;1.97;;;1.17;;
15488;SDS011;7846;48.830;9.116;2022-10-16T12:11:37;5.23;;;1.10;;
15488;SDS011;7846;48.830;9.116;2022-10-16T12:16:56;1.27;;;1.07;;
15488;SDS011;7846;48.830;9.116;2022-10-16T12:19:25;2.00;;;1.10;;
15488;SDS011;7846;48.830;9.116;2022-10-16T12:21:54;3.67;;;1.30;;
15488;SDS011;7846;48.830;9.116;2022-10-16T12:27:27;1.63;;;1.20;;
15488;SDS011;7846;48.830;9.116;2022-10-16T12:29:59;3.03;;;1.17;;
15488;SDS011;7846;48.830;9.116;2022-10-16T12:35:55;2.10;;;1.00;;
15488;SDS011;7846;48.830;9.116;2022-10-16T12:38:26;1.87;;;1.20;;
15488;SDS011;7846;48.830;9.116;2022-10-16T12:41:05;4.93;;;1.10;;
15488;SDS011;7846;48.830;9.116;2022-10-16T12:43:43;1.73;;;1.07;;
15488;SDS011;7846;48.830;9.116;2022-10-16T12:48:36;1.00;;;1.00;;
15488;SDS011;7846;48.830;9.116;2022-10-16T12:51:10;1.67;;;1.00;;
15488;SDS011;7846;48.830;9.116;2022-10-16T12:53:58;1.10;;;1.00;;
15488;SDS011;7846;48.830;9.116;2022-10-16T12:59:49;3.70;;;1.07;;
15488;SDS011;7846;48.830;9.116;2022-10-16T13:02:32;2.80;;;1.10;;
15488;SDS011;7846;48.830;9.116;2022-10-16T13:08:15;1.23;;;1.13;;
15488;SDS011;7846;48.830;9.116;2022-10-16T13:10:59;1.93;;;1.10;;
15488;SDS011;7846;48.830;9.116;2022-10-16T13:23:59;3.63;;;1.10;;
15488;SDS011;7846;48.830;9.116;2022-10-16T13:26:46;1.20;;;1.10;;
15488;SDS011;7846;48.830;9.116;2022-10-16T13:29:22;2.37;;;1.00;;
15488;SDS011;7846;48.830;9.116;2022-10-16T13:31:57;1.03;;;1.03;;
15488;SDS011;7846;48.830;9.116;2022-10-16T13:34:23;1.40;;;1.20;;
15488;SDS011;7846;48.830;9.116;2022-10-16T13:36:53;5.50;;;1.30;;
15488;SDS011;7846;48.830;9.116;2022-10-16T13:39:29;1.33;;;1.00;;
15488;SDS011;7846;48.830;9.116;2022-10-16T13:42:00;1.30;;;1.20;;
15488;SDS011;7846;48.830;9.116;2022-10-16T13:44:39;3.23;;;1.23;;
15488;SDS011;7846;48.830;9.116;2022-10-16T13:47:14;3.03;;;1.47;;
15488;SDS011;7846;48.830;9.116;2022-10-16T13:49:44;1.30;;;1.20;;
15488;SDS011;7846;48.830;9.116;2022-10-16T13:52:19;2.90;;;1.20;;
15488;SDS011;7846;48.830;9.116;2022-10-16T13:54:46;2.43;;;0.90;;
15488;SDS011;7846;48.830;9.116;2022-10-16T13:57:16;1.00;;;0.90;;
15488;SDS011;7846;48.830;9.116;2022-10-16T13:59:46;6.50;;;1.20;;
15488;SDS011;7846;48.830;9.116;2022-10-16T14:02:18;2.50;;;1.20;;
15488;SDS011;7846;48.830;9.116;2022-10-16T14:04:47;4.10;;;1.30;;
15488;SDS011;7846;48.830;9.116;2022-10-16T14:07:15;3.83;;;1.23;;
15488;SDS011;7846;48.830;9.116;2022-10-16T14:09:47;2.53;;;1.10;;
15488;SDS011;7846;48.830;9.116;2022-10-16T14:12:15;2.60;;;1.10;;
15488;SDS011;7846;48.830;9.116;2022-10-16T14:14:41;3.00;;;1.23;;
15488;SDS011;7846;48.830;9.116;2022-10-16T14:17:16;1.80;;;1.30;;
15488;SDS011;7846;48.830;9.116;2022-10-16T14:19:54;3.73;;;1.17;;
15488;SDS011;7846;48.830;9.116;2022-10-16T14:30:52;1.30;;;1.20;;
15488;SDS011;7846;48.830;9.116;2022-10-16T14:33:31;1.53;;;1.40;;
15488;SDS011;7846;48.830;9.116;2022-10-16T14:36:00;1.40;;;1.10;;
15488;SDS011;7846;48.830;9.116;2022-10-16T14:38:29;1.50;;;1.40;;
15488;SDS011;7846;48.830;9.116;2022-10-16T14:40:57;2.53;;;1.40;;
15488;SDS011;7846;48.830;9.116;2022-10-16T14:43:28;2.43;;;1.50;;
15488;SDS011;7846;48.830;9.116;2022-10-16T14:46:06;2.20;;;1.50;;
15488;SDS011;7846;48.830;9.116;2022-10-16T14:48:46;3.57;;;1.50;;
15488;SDS011;7846;48.830;9.116;2022-10-16T14:51:15;5.07;;;1.60;;
15488;SDS011;7846;48.830;9.116;2022-10-16T14:53:41;2.33;;;1.50;;
15488;SDS011;7846;48.830;9.116;2022-10-16T14:58:59;3.23;;;1.47;;
15488;SDS011;7846;48.830;9.116;2022-10-16T15:01:25;4.13;;;1.50;;
15488;SDS011;7846;48.830;9.116;2022-10-16T15:03:51;2.80;;;1.60;;
15488;SDS011;7846;48.830;9.116;2022-10-16T15:06:18;4.40;;;1.33;;
15488;SDS011;7846;48.830;9.116;2022-10-16T15:08:44;3.30;;;1.50;;
15488;SDS011;7846;48.830;9.116;2022-10-16T15:11:10;4.97;;;1.43;;
15488;SDS011;7846;48.830;9.116;2022-10-16T15:13:39;2.37;;;1.60;;
15488;SDS011;7846;48.830;9.116;2022-10-16T15:16:08;1.57;;;1.20;;
15488;SDS011;7846;48.830;9.116;2022-10-16T15:18:36;3.50;;;1.20;;
15488;SDS011;7846;48.830;9.116;2022-10-16T15:21:02;2.70;;;1.33;;
15488;SDS011;7846;48.830;9.116;2022-10-16T15:23:28;1.43;;;1.10;;
15488;SDS011;7846;48.830;9.116;2022-10-16T15:25:55;1.47;;;1.30;;
15488;SDS011;7846;48.830;9.116;2022-10-16T15:28:22;1.40;;;1.30;;
15488;SDS011;7846;48.830;9.116;2022-10-16T15:30:49;2.20;;;1.20;;
15488;SDS011;7846;48.830;9.116;2022-10-16T15:33:17;1.43;;;1.30;;
15488;SDS011;7846;48.830;9.116;2022-10-16T15:35:46;2.60;;;1.50;;
15488;SDS011;7846;48.830;9.116;2022-10-16T15:38:13;1.67;;;1.30;;
15488;SDS011;7846;48.830;9.116;2022-10-16T15:40:39;1.97;;;1.33;;
15488;SDS011;7846;48.830;9.116;2022-10-16T15:43:05;2.10;;;1.40;;
15488;SDS011;7846;48.830;9.116;2022-10-16T15:45:30;3.63;;;1.43;;
15488;SDS011;7846;48.830;9.116;2022-10-16T15:47:56;1.60;;;1.50;;
15488;SDS011;7846;48.830;9.116;2022-10-16T15:50:21;3.73;;;1.50;;
15488;SDS011;7846;48.830;9.116;2022-10-16T15:52:47;2.57;;;1.33;;
15488;SDS011;7846;48.830;9.116;2022-10-16T15:55:13;4.43;;;1.50;;
15488;SDS011;7846;48.830;9.116;2022-10-16T15:57:39;2.27;;;1.67;;
15488;SDS011;7846;48.830;9.116;2022-10-16T16:00:08;4.40;;;1.60;;
15488;SDS011;7846;48.830;9.116;2022-10-16T16:02:36;2.67;;;1.50;;
15488;SDS011;7846;48.830;9.116;2022-10-16T16:05:02;2.93;;;1.60;;
15488;SDS011;7846;48.830;9.116;2022-10-16T16:07:29;2.47;;;1.47;;
15488;SDS011;7846;48.830;9.116;2022-10-16T16:09:57;3.20;;;1.70;;
15488;SDS011;7846;48.830;9.116;2022-10-16T16:12:24;1.90;;;1.50;;
15488;SDS011;7846;48.830;9.116;2022-10-16T16:14:49;2.93;;;1.50;;
15488;SDS011;7846;48.830;9.116;2022-10-16T16:17:15;3.53;;;1.77;;
15488;SDS011;7846;48.830;9.116;2022-10-16T16:19:41;2.57;;;1.63;;
15488;SDS011;7846;48.830;9.116;2022-10-16T16:22:10;4.10;;;1.53;;
15488;SDS011;7846;48.830;9.116;2022-10-16T16:24:36;2.13;;;1.60;;
15488;SDS011;7846;48.830;9.116;2022-10-16T16:30:28;3.13;;;1.80;;
15488;SDS011;7846;48.830;9.116;2022-10-16T16:32:53;3.07;;;1.70;;
15488;SDS011;7846;48.830;9.116;2022-10-16T16:35:19;4.17;;;2.00;;
15488;SDS011;7846;48.830;9.116;2022-10-16T16:37:46;4.33;;;2.27;;
15488;SDS011;7846;48.830;9.116;2022-10-16T16:40:12;3.10;;;2.23;;
15488;SDS011;7846;48.830;9.116;2022-10-16T16:42:39;3.10;;;2.00;;
15488;SDS011;7846;48.830;9.116;2022-10-16T16:45:04;5.33;;;2.00;;
15488;SDS011;7846;48.830;9.116;2022-10-16T16:47:30;2.10;;;1.90;;
15488;SDS011;7846;48.830;9.116;2022-10-16T16:49:55;2.90;;;1.80;;
15488;SDS011;7846;48.830;9.116;2022-10-16T16:52:21;4.27;;;1.90;;
15488;SDS011;7846;48.830;9.116;2022-10-16T16:54:47;3.27;;;1.73;;
15488;SDS011;7846;48.830;9.116;2022-10-16T16:57:17;4.27;;;2.00;;
15488;SDS011;7846;48.830;9.116;2022-10-16T16:59:43;2.63;;;2.20;;
15488;SDS011;7846;48.830;9.116;2022-10-16T17:02:10;3.73;;;2.23;;
15488;SDS011;7846;48.830;9.116;2022-10-16T17:04:40;2.33;;;1.90;;
15488;SDS011;7846;48.830;9.116;2022-10-16T17:09:59;6.60;;;4.40;;
15488;SDS011;7846;48.830;9.116;2022-10-16T17:12:26;6.47;;;3.90;;
15488;SDS011;7846;48.830;9.116;2022-10-16T17:14:53;6.80;;;3.27;;
15488;SDS011;7846;48.830;9.116;2022-10-16T17:17:21;6.67;;;4.13;;
15488;SDS011;7846;48.830;9.116;2022-10-16T17:19:52;5.87;;;3.30;;